createdAt,value
2023-04-29T00:00:54.651Z,11.68
2023-04-29T00:03:57.625Z,11.71
2023-04-29T00:07:00.331Z,11.77
2023-04-29T00:10:03.253Z,11.69
2023-04-29T00:13:06.116Z,11.59
2023-04-29T00:16:12.012Z,11.62
2023-04-29T00:19:15.072Z,11.66
2023-04-29T00:22:17.969Z,11.51
2023-04-29T00:25:20.656Z,11.49
2023-04-29T00:28:23.225Z,11.44
2023-04-29T00:31:25.744Z,11.46
2023-04-29T00:34:28.300Z,11.45
2023-04-29T00:37:30.889Z,11.48
2023-04-29T00:40:33.558Z,11.44
2023-04-29T00:43:36.242Z,11.44
2023-04-29T00:46:38.976Z,11.40
2023-04-29T00:49:42.096Z,11.40
2023-04-29T00:52:45.247Z,11.52
2023-04-29T00:55:48.900Z,11.50
2023-04-29T00:58:52.634Z,11.58
2023-04-29T01:01:55.327Z,11.68
2023-04-29T01:04:58.227Z,11.71
2023-04-29T01:08:44.334Z,11.73
2023-04-29T01:12:01.752Z,11.56
2023-04-29T01:15:40.071Z,11.55
2023-04-29T01:18:50.102Z,11.42
2023-04-29T01:21:56.191Z,11.43
2023-04-29T01:25:00.167Z,11.45
2023-04-29T01:28:21.791Z,11.44
2023-04-29T01:31:49.202Z,11.48
2023-04-29T01:34:59.949Z,11.57
2023-04-29T01:38:37.838Z,11.54
2023-04-29T01:41:52.388Z,11.44
2023-04-29T01:45:06.649Z,11.40
2023-04-29T01:48:09.907Z,11.51
2023-04-29T01:51:12.657Z,11.24
2023-04-29T01:54:15.611Z,11.21
2023-04-29T01:57:19.456Z,11.32
2023-04-29T02:00:31.263Z,11.33
2023-04-29T02:03:34.589Z,11.45
2023-04-29T02:06:38.599Z,11.47
2023-04-29T02:09:41.361Z,11.31
2023-04-29T02:12:46.892Z,11.50
2023-04-29T02:15:50.044Z,11.54
2023-04-29T02:18:53.247Z,11.60
2023-04-29T02:21:57.152Z,11.53
2023-04-29T02:25:01.662Z,11.65
2023-04-29T02:28:04.482Z,11.66
2023-04-29T02:31:07.226Z,11.62
2023-04-29T02:34:09.825Z,11.65
2023-04-29T02:37:12.753Z,11.67
2023-04-29T02:40:16.452Z,11.59
2023-04-29T02:43:19.072Z,11.63
2023-04-29T02:46:21.563Z,11.64
2023-04-29T02:49:24.161Z,11.58
2023-04-29T02:52:27.438Z,11.57
2023-04-29T02:55:30.016Z,11.55
2023-04-29T02:58:37.182Z,11.63
2023-04-29T03:01:39.980Z,11.48
2023-04-29T03:04:42.848Z,11.48
2023-04-29T03:07:45.597Z,11.59
2023-04-29T03:10:48.311Z,11.57
2023-04-29T03:13:51.321Z,11.57
2023-04-29T03:16:56.363Z,11.50
2023-04-29T03:19:59.381Z,11.57
2023-04-29T03:23:02.522Z,11.62
2023-04-29T03:26:05.669Z,11.61
2023-04-29T03:29:08.392Z,11.65
2023-04-29T03:32:10.992Z,11.64
2023-04-29T03:35:15.556Z,11.56
2023-04-29T03:38:38.791Z,11.61
2023-04-29T03:41:41.524Z,11.61
2023-04-29T03:44:44.602Z,11.61
2023-04-29T03:47:47.038Z,11.58
2023-04-29T03:50:49.905Z,11.56
2023-04-29T03:53:54.840Z,11.46
2023-04-29T03:56:57.342Z,11.43
2023-04-29T04:00:00.220Z,11.51
2023-04-29T04:03:05.510Z,11.53
2023-04-29T04:06:10.072Z,11.52
2023-04-29T04:09:12.825Z,11.54
2023-04-29T04:12:15.586Z,11.52
2023-04-29T04:15:18.643Z,11.40
2023-04-29T04:18:21.222Z,11.49
2023-04-29T04:21:23.742Z,11.53
2023-04-29T04:24:35.853Z,11.58
2023-04-29T04:27:39.644Z,11.49
2023-04-29T04:30:46.542Z,11.59
2023-04-29T04:33:49.222Z,11.53
2023-04-29T04:36:51.696Z,11.41
2023-04-29T04:39:54.339Z,11.42
2023-04-29T04:42:57.411Z,11.38
2023-04-29T04:46:00.239Z,11.27
2023-04-29T04:49:03.940Z,11.31
2023-04-29T04:52:08.860Z,11.31
2023-04-29T04:55:13.821Z,11.32
2023-04-29T04:58:20.038Z,11.45
2023-04-29T05:01:22.791Z,11.51
2023-04-29T05:04:25.658Z,11.55
2023-04-29T05:07:28.378Z,11.44
2023-04-29T05:10:37.607Z,11.42
2023-04-29T05:13:41.577Z,11.50
2023-04-29T05:16:47.348Z,11.64
2023-04-29T05:19:51.329Z,11.50
2023-04-29T05:22:54.036Z,11.55
2023-04-29T05:25:57.071Z,11.57
2023-04-29T05:28:59.904Z,11.61
2023-04-29T05:32:03.014Z,11.89
2023-04-29T05:35:07.466Z,12.02
2023-04-29T05:38:10.979Z,12.07
2023-04-29T05:41:22.150Z,12.24
2023-04-29T05:44:30.872Z,12.12
2023-04-29T05:47:33.674Z,12.07
2023-04-29T05:50:36.691Z,11.87
2023-04-29T05:53:40.669Z,11.85
2023-04-29T05:56:43.637Z,11.91
2023-04-29T05:59:46.579Z,12.17
2023-04-29T06:02:58.074Z,12.14
2023-04-29T06:06:03.580Z,12.24
2023-04-29T06:09:29.188Z,12.14
2023-04-29T06:12:35.870Z,12.11
2023-04-29T06:15:38.659Z,12.16
2023-04-29T06:18:41.588Z,12.02
2023-04-29T06:21:44.064Z,12.05
2023-04-29T06:24:47.535Z,12.05
2023-04-29T06:27:57.787Z,12.04
2023-04-29T06:31:03.301Z,11.91
2023-04-29T06:34:06.077Z,12.10
2023-04-29T06:37:12.658Z,11.92
2023-04-29T06:40:53.531Z,12.10
2023-04-29T06:44:24.812Z,12.21
2023-04-29T06:47:39.612Z,12.19
2023-04-29T06:50:58.224Z,12.16
2023-04-29T06:54:01.319Z,12.25
2023-04-29T06:57:03.838Z,12.30
2023-04-29T07:00:09.049Z,12.29
2023-04-29T07:03:12.065Z,12.42
2023-04-29T07:06:14.757Z,12.47
2023-04-29T07:09:17.428Z,12.48
2023-04-29T07:12:20.660Z,12.77
2023-04-29T07:15:23.698Z,12.78
2023-04-29T07:18:26.804Z,12.89
2023-04-29T07:21:30.764Z,13.12
2023-04-29T07:24:33.356Z,13.24
2023-04-29T07:27:36.084Z,13.20
2023-04-29T07:30:38.730Z,13.11
2023-04-29T07:33:41.476Z,13.27
2023-04-29T07:36:45.011Z,13.34
2023-04-29T07:39:47.471Z,13.14
2023-04-29T07:42:52.090Z,13.03
2023-04-29T07:45:54.739Z,13.10
2023-04-29T07:48:58.430Z,13.17
2023-04-29T07:52:02.452Z,13.12
2023-04-29T07:55:05.675Z,13.30
2023-04-29T07:58:08.193Z,13.35
2023-04-29T08:01:12.382Z,13.49
2023-04-29T08:04:16.151Z,13.80
2023-04-29T08:07:24.868Z,13.81
2023-04-29T08:10:27.664Z,14.25
2023-04-29T08:13:30.126Z,14.66
2023-04-29T08:16:32.734Z,15.01
2023-04-29T08:19:35.985Z,15.29
2023-04-29T08:22:38.472Z,15.25
2023-04-29T08:25:44.339Z,15.11
2023-04-29T08:28:46.806Z,15.08
2023-04-29T08:31:50.317Z,15.17
2023-04-29T08:34:53.392Z,15.27
2023-04-29T08:37:55.932Z,15.41
2023-04-29T08:40:58.600Z,15.55
2023-04-29T08:44:01.159Z,15.60
2023-04-29T08:47:04.868Z,16.01
2023-04-29T08:50:09.131Z,16.08
2023-04-29T08:53:14.516Z,15.93
2023-04-29T08:56:21.793Z,15.81
2023-04-29T08:59:25.618Z,16.00
2023-04-29T09:02:29.387Z,16.11
2023-04-29T09:05:34.164Z,15.87
2023-04-29T09:08:37.481Z,16.07
2023-04-29T09:11:39.970Z,15.88
2023-04-29T09:14:42.464Z,15.62
2023-04-29T09:17:49.174Z,16.00
2023-04-29T09:20:51.803Z,16.10
2023-04-29T09:23:59.512Z,16.28
2023-04-29T09:27:03.454Z,16.74
2023-04-29T09:30:06.703Z,16.68
2023-04-29T09:33:09.819Z,16.78
2023-04-29T09:36:12.837Z,16.99
2023-04-29T09:39:18.959Z,17.19
2023-04-29T09:42:21.400Z,17.29
2023-04-29T09:45:37.291Z,17.38
2023-04-29T09:48:40.001Z,17.42
2023-04-29T09:51:53.749Z,17.29
2023-04-29T09:55:05.240Z,17.42
2023-04-29T09:58:07.836Z,17.68
2023-04-29T10:01:13.334Z,17.87
2023-04-29T10:04:18.427Z,17.78
2023-04-29T10:07:22.134Z,17.66
2023-04-29T10:10:25.629Z,17.96
2023-04-29T10:13:29.743Z,18.27
2023-04-29T10:16:39.531Z,18.09
2023-04-29T10:20:08.443Z,17.94
2023-04-29T10:23:12.508Z,17.81
2023-04-29T10:26:16.594Z,17.66
2023-04-29T10:29:21.736Z,17.83
2023-04-29T10:32:26.790Z,18.20
2023-04-29T10:35:32.460Z,18.22
2023-04-29T10:38:37.405Z,18.82
2023-04-29T10:41:47.967Z,19.50
2023-04-29T10:45:19.086Z,19.70
2023-04-29T10:48:24.616Z,20.13
2023-04-29T10:51:34.053Z,20.08
2023-04-29T10:54:36.783Z,20.41
2023-04-29T10:57:39.236Z,23.83
2023-04-29T11:00:41.712Z,23.16
2023-04-29T11:03:59.961Z,24.09
2023-04-29T11:07:03.104Z,24.02
2023-04-29T11:10:07.266Z,22.23
2023-04-29T11:13:26.391Z,21.84
2023-04-29T11:16:28.919Z,20.69
2023-04-29T11:19:34.154Z,21.16
2023-04-29T11:22:36.882Z,20.62
2023-04-29T11:25:39.814Z,20.84
2023-04-29T11:28:43.662Z,20.78
2023-04-29T11:31:46.962Z,21.33
2023-04-29T11:34:49.591Z,21.22
2023-04-29T11:37:53.183Z,21.91
2023-04-29T11:40:57.095Z,24.20
2023-04-29T11:44:01.133Z,24.55
2023-04-29T11:47:04.886Z,25.62
2023-04-29T11:50:10.348Z,25.90
2023-04-29T11:53:13.128Z,25.68
2023-04-29T11:56:15.766Z,23.64
2023-04-29T11:59:19.648Z,22.80
2023-04-29T12:02:23.947Z,23.96
2023-04-29T12:05:26.994Z,23.29
2023-04-29T12:08:31.065Z,22.80
2023-04-29T12:11:34.120Z,22.30
2023-04-29T12:14:37.472Z,21.97
2023-04-29T12:17:40.901Z,21.87
2023-04-29T12:20:43.781Z,21.75
2023-04-29T12:23:46.484Z,21.89
2023-04-29T12:26:49.570Z,21.77
2023-04-29T12:29:52.977Z,21.93
2023-04-29T12:32:55.570Z,22.36
2023-04-29T12:35:59.218Z,22.38
2023-04-29T12:39:02.120Z,22.42
2023-04-29T12:42:04.590Z,22.95
2023-04-29T12:45:08.370Z,22.96
2023-04-29T12:48:22.100Z,23.32
2023-04-29T12:51:33.141Z,24.48
2023-04-29T12:54:41.124Z,24.52
2023-04-29T12:57:43.645Z,24.92
2023-04-29T13:00:46.347Z,26.47
2023-04-29T13:03:50.194Z,25.66
2023-04-29T13:07:00.006Z,27.46
2023-04-29T13:10:02.596Z,26.95
2023-04-29T13:13:05.304Z,25.45
2023-04-29T13:16:08.504Z,29.21
2023-04-29T13:19:29.541Z,31.15
2023-04-29T13:22:34.099Z,32.04
2023-04-29T13:25:36.541Z,32.31
2023-04-29T13:28:38.953Z,33.26
2023-04-29T13:31:44.708Z,31.30
2023-04-29T13:34:47.185Z,32.18
2023-04-29T13:37:49.678Z,31.54
2023-04-29T13:40:54.778Z,30.64
2023-04-29T13:43:58.583Z,31.32
2023-04-29T13:47:01.824Z,30.55
2023-04-29T13:53:40.953Z,36.30
2023-04-29T13:59:44.697Z,33.64
2023-04-29T14:05:56.844Z,26.69
2023-04-29T14:09:01.118Z,25.51
2023-04-29T14:12:04.847Z,25.28
2023-04-29T14:15:07.952Z,24.63
2023-04-29T14:18:11.793Z,25.83
2023-04-29T14:21:14.658Z,27.87
2023-04-29T14:24:17.344Z,27.68
2023-04-29T14:27:19.801Z,28.49
2023-04-29T14:30:22.532Z,28.69
2023-04-29T14:33:25.318Z,26.21
2023-04-29T14:36:28.371Z,24.81
2023-04-29T14:39:31.055Z,24.34
2023-04-29T14:42:33.812Z,24.10
2023-04-29T14:45:37.703Z,23.40
2023-04-29T14:48:40.365Z,22.67
2023-04-29T14:51:43.087Z,22.27
2023-04-29T14:54:46.212Z,21.60
2023-04-29T14:57:52.144Z,21.44
2023-04-29T15:00:54.790Z,21.21
2023-04-29T15:03:57.536Z,21.48
2023-04-29T15:07:00.441Z,21.28
2023-04-29T15:10:03.231Z,21.53
2023-04-29T15:13:06.737Z,21.28
2023-04-29T15:16:09.246Z,21.23
2023-04-29T15:19:12.662Z,21.20
2023-04-29T15:22:15.400Z,20.86
2023-04-29T15:25:18.129Z,21.15
2023-04-29T15:28:20.549Z,21.06
2023-04-29T15:31:25.086Z,21.35
2023-04-29T15:34:28.075Z,21.20
2023-04-29T15:37:30.789Z,21.00
2023-04-29T15:40:33.431Z,20.92
2023-04-29T15:43:35.938Z,20.80
2023-04-29T15:46:38.461Z,20.51
2023-04-29T15:49:42.436Z,20.39
2023-04-29T15:52:45.248Z,20.48
2023-04-29T15:55:47.743Z,20.61
2023-04-29T15:58:50.563Z,20.54
2023-04-29T16:01:53.091Z,20.54
2023-04-29T16:04:55.526Z,20.37
2023-04-29T16:07:58.082Z,20.22
2023-04-29T16:11:00.745Z,19.99
2023-04-29T16:14:03.380Z,19.71
2023-04-29T16:17:06.182Z,19.57
2023-04-29T16:20:09.151Z,19.40
2023-04-29T16:23:12.274Z,19.28
2023-04-29T16:26:14.961Z,19.02
2023-04-29T16:29:18.359Z,18.95
2023-04-29T16:32:21.104Z,18.95
2023-04-29T16:35:26.386Z,18.99
2023-04-29T16:38:28.879Z,18.86
2023-04-29T16:41:32.208Z,18.97
2023-04-29T16:44:34.771Z,19.07
2023-04-29T16:47:37.758Z,19.04
2023-04-29T16:50:40.435Z,20.21
2023-04-29T16:53:42.979Z,21.69
2023-04-29T16:56:45.517Z,20.99
2023-04-29T16:59:48.683Z,21.80
2023-04-29T17:02:51.563Z,21.59
2023-04-29T17:05:54.171Z,20.43
2023-04-29T17:08:57.049Z,19.48
2023-04-29T17:12:00.322Z,18.77
2023-04-29T17:15:03.447Z,18.39
2023-04-29T17:18:06.081Z,18.08
2023-04-29T17:21:08.941Z,17.84
2023-04-29T17:24:11.912Z,17.54
2023-04-29T17:27:14.712Z,17.35
2023-04-29T17:30:17.223Z,17.16
2023-04-29T17:33:19.917Z,16.97
2023-04-29T17:36:22.744Z,16.77
2023-04-29T17:39:25.165Z,16.65
2023-04-29T17:42:27.829Z,16.56
2023-04-29T17:45:30.499Z,16.40
2023-04-29T17:48:33.252Z,16.34
2023-04-29T17:51:36.032Z,16.22
2023-04-29T17:54:40.400Z,16.06
2023-04-29T17:57:43.032Z,15.91
2023-04-29T18:00:46.463Z,15.75
2023-04-29T18:03:50.945Z,15.61
2023-04-29T18:06:53.520Z,15.46
2023-04-29T18:09:56.536Z,15.34
2023-04-29T18:12:59.852Z,15.19
2023-04-29T18:16:02.616Z,14.94
2023-04-29T18:19:05.148Z,14.97
2023-04-29T18:22:09.431Z,14.70
2023-04-29T18:25:12.540Z,14.67
2023-04-29T18:28:24.767Z,14.65
2023-04-29T18:31:27.949Z,14.65
2023-04-29T18:34:31.476Z,14.41
2023-04-29T18:37:33.923Z,14.33
2023-04-29T18:40:37.132Z,14.30
2023-04-29T18:43:39.882Z,14.17
2023-04-29T18:46:42.408Z,14.12
2023-04-29T18:49:45.854Z,13.97
2023-04-29T18:52:48.420Z,13.88
2023-04-29T18:55:50.896Z,13.77
2023-04-29T18:58:53.537Z,13.83
2023-04-29T19:01:56.209Z,13.80
2023-04-29T19:05:02.709Z,13.76
2023-04-29T19:08:06.005Z,13.69
2023-04-29T19:11:08.554Z,13.71
2023-04-29T19:14:11.523Z,13.58
2023-04-29T19:17:14.594Z,13.52
2023-04-29T19:20:17.261Z,13.55
2023-04-29T19:23:21.416Z,13.49
2023-04-29T19:26:24.148Z,13.50
2023-04-29T19:29:27.081Z,13.62
2023-04-29T19:32:30.361Z,13.69
2023-04-29T19:35:33.833Z,13.69
2023-04-29T19:38:36.432Z,13.83
2023-04-29T19:41:38.888Z,13.68
2023-04-29T19:44:42.664Z,13.81
2023-04-29T19:47:45.232Z,13.81
2023-04-29T19:50:48.222Z,13.73
2023-04-29T19:53:51.740Z,13.63
2023-04-29T19:56:54.327Z,13.66
2023-04-29T19:59:57.309Z,13.40
2023-04-29T20:03:00.218Z,13.28
2023-04-29T20:06:04.168Z,13.25
2023-04-29T20:09:09.099Z,13.21
2023-04-29T20:12:12.012Z,13.20
2023-04-29T20:15:14.430Z,13.26
2023-04-29T20:18:18.397Z,13.15
2023-04-29T20:21:20.940Z,13.24
2023-04-29T20:24:24.018Z,13.19
2023-04-29T20:27:26.614Z,13.06
2023-04-29T20:30:29.198Z,13.13
2023-04-29T20:33:31.807Z,13.05
2023-04-29T20:36:34.635Z,13.06
2023-04-29T20:39:37.955Z,12.98
2023-04-29T20:42:40.827Z,12.99
2023-04-29T20:45:43.259Z,13.04
2023-04-29T20:48:46.127Z,13.01
2023-04-29T20:51:49.425Z,12.99
2023-04-29T20:54:52.364Z,12.93
2023-04-29T20:57:54.798Z,13.01
2023-04-29T21:00:57.383Z,12.95
2023-04-29T21:03:59.922Z,12.98
2023-04-29T21:07:03.422Z,12.96
2023-04-29T21:10:06.572Z,13.09
2023-04-29T21:13:09.256Z,13.13
2023-04-29T21:16:11.787Z,13.06
2023-04-29T21:19:14.483Z,13.13
2023-04-29T21:22:17.016Z,13.04
2023-04-29T21:25:19.451Z,13.12
2023-04-29T21:28:21.876Z,13.04
2023-04-29T21:31:24.399Z,13.17
2023-04-29T21:34:26.866Z,13.14
2023-04-29T21:37:30.657Z,13.03
2023-04-29T21:40:33.174Z,13.06
2023-04-29T21:43:35.699Z,13.14
2023-04-29T21:46:38.596Z,13.16
2023-04-29T21:49:41.902Z,13.11
2023-04-29T21:52:44.685Z,13.16
2023-04-29T21:55:47.311Z,13.10
2023-04-29T21:58:49.875Z,13.15
2023-04-29T22:02:00.255Z,13.15
2023-04-29T22:05:03.558Z,13.17
2023-04-29T22:08:07.560Z,13.22
2023-04-29T22:11:10.266Z,13.16
2023-04-29T22:14:12.760Z,13.16
2023-04-29T22:17:15.299Z,13.08
2023-04-29T22:20:18.013Z,13.03
2023-04-29T22:23:22.628Z,12.81
2023-04-29T22:26:25.567Z,12.92
2023-04-29T22:29:28.430Z,12.94
2023-04-29T22:32:31.065Z,12.90
2023-04-29T22:35:33.484Z,12.75
2023-04-29T22:38:37.907Z,12.80
2023-04-29T22:41:40.524Z,12.84
2023-04-29T22:44:43.025Z,12.84
2023-04-29T22:47:45.789Z,12.90
2023-04-29T22:50:55.797Z,12.92
2023-04-29T22:53:58.759Z,12.95
2023-04-29T22:57:01.252Z,12.91
2023-04-29T23:00:04.932Z,12.93
2023-04-29T23:03:07.502Z,12.90
2023-04-29T23:06:10.091Z,12.88
2023-04-29T23:09:12.944Z,12.75
2023-04-29T23:12:17.078Z,12.83
2023-04-29T23:15:19.484Z,12.89
2023-04-29T23:18:21.966Z,12.93
2023-04-29T23:21:27.065Z,12.84
2023-04-29T23:24:29.544Z,12.84
2023-04-29T23:27:31.991Z,12.84
2023-04-29T23:30:34.661Z,12.90
2023-04-29T23:33:37.178Z,12.87
2023-04-29T23:36:39.819Z,12.77
2023-04-29T23:39:42.405Z,12.71
2023-04-29T23:42:45.272Z,12.55
2023-04-29T23:45:47.767Z,12.54
2023-04-29T23:48:50.315Z,12.44
2023-04-29T23:51:52.733Z,12.25
2023-04-29T23:54:55.339Z,12.07
2023-04-29T23:57:57.885Z,11.95
